createdAt,value
2019-04-13T00:02:21.283Z,22.10
2019-04-13T00:05:21.645Z,21.30
2019-04-13T00:07:55.854Z,22.07
2019-04-13T00:10:47.417Z,22.57
2019-04-13T00:13:19.380Z,22.70
2019-04-13T00:15:51.329Z,23.20
2019-04-13T00:18:23.315Z,21.57
2019-04-13T00:20:55.399Z,21.70
2019-04-13T00:23:27.505Z,22.23
2019-04-13T00:25:59.450Z,22.57
2019-04-13T00:28:31.409Z,21.43
2019-04-13T00:31:03.384Z,21.87
2019-04-13T00:33:35.336Z,26.83
2019-04-13T00:36:07.288Z,25.97
2019-04-13T00:38:39.386Z,25.13
2019-04-13T00:41:11.352Z,23.60
2019-04-13T00:43:43.318Z,23.53
2019-04-13T00:46:15.272Z,22.00
2019-04-13T00:48:47.225Z,22.27
2019-04-13T00:51:19.157Z,22.07
2019-04-13T00:53:51.114Z,23.83
2019-04-13T00:56:23.053Z,23.17
2019-04-13T00:58:55.062Z,24.13
2019-04-13T01:01:27.023Z,22.83
2019-04-13T01:03:58.985Z,22.97
2019-04-13T01:06:30.936Z,22.77
2019-04-13T01:09:07.298Z,23.37
2019-04-13T01:11:39.241Z,22.83
2019-04-13T01:14:11.210Z,22.37
2019-04-13T01:16:43.156Z,23.20
2019-04-13T01:19:15.120Z,22.30
2019-04-13T01:21:47.046Z,22.37
2019-04-13T01:24:19.000Z,21.30
2019-04-13T01:26:50.937Z,23.10
2019-04-13T01:29:22.906Z,21.10
2019-04-13T01:31:54.852Z,22.60
2019-04-13T01:34:26.805Z,23.43
2019-04-13T01:36:58.785Z,23.23
2019-04-13T01:39:30.751Z,21.83
2019-04-13T01:42:02.759Z,23.30
2019-04-13T01:44:34.776Z,23.23
2019-04-13T01:47:06.668Z,22.67
2019-04-13T01:49:38.643Z,22.93
2019-04-13T01:52:10.583Z,23.20
2019-04-13T01:54:42.527Z,22.83
2019-04-13T01:57:14.463Z,21.83
2019-04-13T01:59:46.440Z,23.27
2019-04-13T02:02:26.763Z,22.27
2019-04-13T02:05:18.382Z,24.13
2019-04-13T02:08:00.607Z,23.20
2019-04-13T02:10:35.685Z,22.03
2019-04-13T02:13:07.616Z,22.20
2019-04-13T02:15:39.577Z,23.70
2019-04-13T02:18:11.536Z,23.90
2019-04-13T02:20:43.516Z,24.30
2019-04-13T02:23:15.446Z,23.90
2019-04-13T02:25:47.412Z,23.13
2019-04-13T02:28:19.352Z,23.40
2019-04-13T02:30:51.310Z,24.37
2019-04-13T02:33:23.247Z,24.33
2019-04-13T02:35:55.238Z,23.60
2019-04-13T02:38:27.195Z,24.47
2019-04-13T02:40:59.369Z,24.37
2019-04-13T02:43:31.309Z,21.80
2019-04-13T02:46:03.288Z,21.63
2019-04-13T02:48:35.204Z,21.70
2019-04-13T02:51:07.159Z,24.10
2019-04-13T02:53:39.125Z,23.73
2019-04-13T02:56:11.126Z,23.83
2019-04-13T02:58:43.050Z,23.73
2019-04-13T03:01:15.029Z,22.30
2019-04-13T03:03:47.352Z,23.40
2019-04-13T03:06:19.328Z,22.73
2019-04-13T03:08:51.256Z,24.10
2019-04-13T03:11:23.232Z,23.27
2019-04-13T03:13:55.181Z,23.77
2019-04-13T03:16:49.642Z,23.60
2019-04-13T03:19:28.344Z,21.90
2019-04-13T03:22:00.290Z,22.83
2019-04-13T03:24:32.262Z,22.53
2019-04-13T03:27:04.223Z,21.97
2019-04-13T03:29:36.170Z,22.73
2019-04-13T03:32:08.143Z,23.97
2019-04-13T03:34:40.073Z,24.17
2019-04-13T03:37:12.063Z,22.07
2019-04-13T03:39:44.022Z,22.90
2019-04-13T03:42:16.015Z,23.63
2019-04-13T03:44:47.949Z,22.30
2019-04-13T03:47:19.892Z,22.93
2019-04-13T03:49:51.857Z,23.93
2019-04-13T03:52:23.792Z,23.53
2019-04-13T03:54:55.755Z,22.97
2019-04-13T03:57:27.737Z,24.30
2019-04-13T03:59:59.689Z,24.43
2019-04-13T04:02:31.634Z,23.03
2019-04-13T04:05:04.384Z,21.93
2019-04-13T04:07:36.852Z,22.87
2019-04-13T04:10:09.023Z,21.93
2019-04-13T04:12:40.964Z,23.00
2019-04-13T04:15:12.956Z,22.77
2019-04-13T04:17:44.891Z,24.27
2019-04-13T04:20:16.858Z,21.40
2019-04-13T04:22:48.792Z,22.47
2019-04-13T04:25:20.734Z,22.13
2019-04-13T04:27:52.693Z,22.27
2019-04-13T04:30:24.704Z,22.43
2019-04-13T04:32:56.637Z,22.93
2019-04-13T04:35:28.614Z,20.83
2019-04-13T04:38:00.614Z,23.43
2019-04-13T04:40:35.155Z,20.80
2019-04-13T04:43:06.428Z,21.70
2019-04-13T04:45:38.374Z,22.23
2019-04-13T04:48:10.319Z,21.80
2019-04-13T04:50:42.288Z,22.60
2019-04-13T04:53:14.230Z,22.20
2019-04-13T04:55:46.201Z,21.97
2019-04-13T04:58:18.141Z,23.40
2019-04-13T05:00:50.110Z,23.07
2019-04-13T05:03:22.058Z,22.73
2019-04-13T05:05:54.018Z,22.40
2019-04-13T05:08:25.962Z,22.87
2019-04-13T05:10:57.919Z,23.60
2019-04-13T05:13:29.883Z,22.73
2019-04-13T05:16:01.829Z,22.07
2019-04-13T05:18:33.766Z,23.63
2019-04-13T05:21:05.768Z,22.60
2019-04-13T05:23:37.730Z,22.37
2019-04-13T05:26:09.693Z,24.30
2019-04-13T05:28:41.643Z,24.70
2019-04-13T05:31:13.604Z,23.50
2019-04-13T05:33:45.577Z,23.30
2019-04-13T05:36:17.547Z,23.97
2019-04-13T05:38:49.507Z,23.73
2019-04-13T05:41:21.568Z,22.50
2019-04-13T05:43:53.501Z,23.30
2019-04-13T05:46:25.467Z,24.90
2019-04-13T05:48:57.411Z,24.17
2019-04-13T05:51:29.443Z,25.03
2019-04-13T05:54:01.389Z,25.00
2019-04-13T05:56:33.373Z,25.37
2019-04-13T05:59:05.320Z,24.60
2019-04-13T06:01:37.310Z,23.90
2019-04-13T06:04:09.249Z,25.60
2019-04-13T06:06:41.338Z,24.70
2019-04-13T06:09:13.325Z,25.13
2019-04-13T06:11:45.615Z,25.07
2019-04-13T06:14:17.670Z,24.90
2019-04-13T06:16:49.628Z,24.87
2019-04-13T06:19:21.599Z,26.23
2019-04-13T06:21:53.547Z,24.37
2019-04-13T06:24:25.517Z,23.37
2019-04-13T06:26:57.463Z,24.50
2019-04-13T06:29:29.455Z,24.53
2019-04-13T06:32:26.700Z,25.97
2019-04-13T06:35:27.089Z,26.47
2019-04-13T06:37:59.121Z,26.60
2019-04-13T06:40:31.085Z,26.23
2019-04-13T06:43:03.067Z,26.13
2019-04-13T06:45:35.116Z,26.17
2019-04-13T06:48:07.088Z,25.90
2019-04-13T06:50:39.059Z,26.03
2019-04-13T06:53:11.039Z,26.13
2019-04-13T06:55:43.041Z,26.77
2019-04-13T06:58:15.792Z,27.47
2019-04-13T07:00:48.625Z,27.33
2019-04-13T07:03:20.683Z,27.30
2019-04-13T07:05:52.666Z,27.50
2019-04-13T07:08:38.119Z,26.97
2019-04-13T07:11:13.905Z,26.23
2019-04-13T07:13:54.697Z,26.13
2019-04-13T07:16:43.041Z,27.00
2019-04-13T07:19:13.258Z,25.70
2019-04-13T07:21:45.259Z,26.83
2019-04-13T07:24:18.640Z,25.83
2019-04-13T07:26:50.879Z,26.80
2019-04-13T07:29:24.420Z,26.33
2019-04-13T07:31:56.518Z,26.17
2019-04-13T07:34:28.520Z,27.03
2019-04-13T07:37:00.557Z,25.50
2019-04-13T07:39:32.598Z,26.27
2019-04-13T07:42:05.461Z,27.43
2019-04-13T07:44:43.227Z,27.33
2019-04-13T07:47:32.383Z,26.13
2019-04-13T07:50:24.337Z,26.33
2019-04-13T07:52:57.465Z,26.60
2019-04-13T07:55:29.508Z,25.87
2019-04-13T07:58:01.512Z,25.53
2019-04-13T08:00:34.821Z,26.50
2019-04-13T08:03:06.795Z,27.03
2019-04-13T08:05:38.808Z,25.57
2019-04-13T08:08:10.764Z,25.93
2019-04-13T08:10:42.758Z,25.13
2019-04-13T08:13:14.756Z,26.87
2019-04-13T08:15:46.740Z,26.30
2019-04-13T08:18:39.325Z,27.97
2019-04-13T08:21:12.262Z,27.97
2019-04-13T08:23:54.147Z,27.40
2019-04-13T08:26:26.113Z,28.53
2019-04-13T08:28:58.155Z,28.27
2019-04-13T08:31:30.158Z,27.33
2019-04-13T08:34:02.123Z,27.53
2019-04-13T08:36:34.157Z,26.67
2019-04-13T08:39:07.364Z,27.27
2019-04-13T08:41:39.393Z,27.23
2019-04-13T08:44:11.355Z,26.90
2019-04-13T08:46:43.344Z,27.43
2019-04-13T08:49:15.301Z,28.37
2019-04-13T08:51:47.413Z,26.77
2019-04-13T08:54:19.419Z,28.20
2019-04-13T08:56:51.401Z,28.07
2019-04-13T08:59:24.690Z,26.90
2019-04-13T09:01:56.856Z,28.40
2019-04-13T09:04:28.897Z,27.80
2019-04-13T09:07:00.862Z,27.77
2019-04-13T09:09:35.633Z,26.67
2019-04-13T09:12:08.622Z,26.80
2019-04-13T09:14:40.691Z,27.83
2019-04-13T09:17:16.962Z,27.23
2019-04-13T09:20:12.031Z,25.27
2019-04-13T09:23:02.303Z,27.40
2019-04-13T09:25:34.429Z,27.57
2019-04-13T09:28:06.398Z,29.40
2019-04-13T09:30:39.733Z,27.33
2019-04-13T09:33:11.741Z,25.47
2019-04-13T09:35:43.786Z,25.43
2019-04-13T09:38:15.763Z,27.27
2019-04-13T09:40:47.776Z,26.87
2019-04-13T09:43:24.017Z,27.87
2019-04-13T09:45:56.061Z,26.70
2019-04-13T09:48:28.109Z,28.73
2019-04-13T09:51:00.211Z,26.27
2019-04-13T09:53:32.244Z,25.97
2019-04-13T09:56:04.540Z,25.50
2019-04-13T09:58:36.554Z,27.37
2019-04-13T10:01:08.539Z,27.87
2019-04-13T10:03:40.556Z,26.73
2019-04-13T10:06:12.558Z,27.17
2019-04-13T10:08:55.321Z,28.07
2019-04-13T10:11:22.470Z,26.97
2019-04-13T10:14:04.647Z,26.33
2019-04-13T10:16:43.231Z,27.37
2019-04-13T10:19:15.232Z,28.33
2019-04-13T10:21:49.984Z,27.87
2019-04-13T10:24:35.562Z,26.37
2019-04-13T10:27:07.708Z,27.03
2019-04-13T10:29:39.698Z,28.20
2019-04-13T10:32:11.738Z,30.80
2019-04-13T10:34:43.734Z,30.20
2019-04-13T10:37:15.822Z,28.77
2019-04-13T10:39:47.951Z,29.13
2019-04-13T10:42:19.997Z,29.33
2019-04-13T10:45:06.009Z,29.53
2019-04-13T10:47:49.660Z,30.27
2019-04-13T10:50:43.669Z,29.90
2019-04-13T10:53:15.693Z,29.77
2019-04-13T10:55:47.717Z,30.50
2019-04-13T10:58:19.800Z,28.43
2019-04-13T11:00:51.825Z,30.10
2019-04-13T11:03:23.841Z,30.30
2019-04-13T11:05:55.832Z,29.67
2019-04-13T11:08:27.870Z,28.33
2019-04-13T11:10:59.835Z,29.73
2019-04-13T11:13:31.849Z,29.77
2019-04-13T11:16:03.953Z,28.03
2019-04-13T11:18:36.951Z,29.03
2019-04-13T11:21:09.695Z,30.33
2019-04-13T11:23:45.906Z,29.50
2019-04-13T11:26:15.636Z,29.73
2019-04-13T11:28:47.616Z,28.70
2019-04-13T11:31:22.764Z,28.43
2019-04-13T11:33:53.564Z,30.10
2019-04-13T11:36:25.500Z,31.80
2019-04-13T11:38:57.521Z,31.33
2019-04-13T11:41:49.071Z,30.27
2019-04-13T11:44:52.754Z,28.37
2019-04-13T11:47:30.263Z,28.03
2019-04-13T11:50:02.448Z,29.27
2019-04-13T11:52:34.407Z,29.60
2019-04-13T11:55:06.603Z,27.23
2019-04-13T11:57:38.556Z,29.80
2019-04-13T12:00:30.445Z,29.63
2019-04-13T12:03:15.247Z,30.53
2019-04-13T12:05:47.905Z,30.13
2019-04-13T12:08:21.134Z,31.33
2019-04-13T12:11:19.111Z,30.83
2019-04-13T12:14:00.309Z,31.63
2019-04-13T12:16:49.250Z,33.10
2019-04-13T12:19:27.144Z,32.43
2019-04-13T12:22:21.587Z,31.70
2019-04-13T12:24:53.608Z,31.50
2019-04-13T12:27:25.619Z,31.27
2019-04-13T12:29:57.649Z,33.93
2019-04-13T12:32:31.081Z,34.53
2019-04-13T12:35:07.398Z,32.33
2019-04-13T12:37:37.282Z,33.20
2019-04-13T12:40:34.876Z,34.37
2019-04-13T12:43:06.977Z,34.03
2019-04-13T12:45:38.997Z,34.53
2019-04-13T12:48:10.992Z,34.60
2019-04-13T12:50:43.004Z,33.87
2019-04-13T12:53:15.084Z,33.33
2019-04-13T12:55:47.179Z,34.50
2019-04-13T12:58:22.782Z,35.37
2019-04-13T13:01:02.602Z,35.27
2019-04-13T13:03:36.645Z,31.37
2019-04-13T13:06:09.116Z,31.23
2019-04-13T13:08:41.159Z,31.70
2019-04-13T13:11:13.297Z,31.93
2019-04-13T13:13:46.741Z,32.77
2019-04-13T13:16:18.762Z,31.97
2019-04-13T13:18:50.763Z,32.93
2019-04-13T13:21:22.861Z,33.63
2019-04-13T13:23:54.889Z,31.83
2019-04-13T13:26:26.892Z,35.00
2019-04-13T13:28:58.860Z,32.60
2019-04-13T13:31:30.873Z,33.93
2019-04-13T13:34:02.854Z,35.23
2019-04-13T13:36:34.976Z,36.80
2019-04-13T13:39:06.941Z,36.40
2019-04-13T13:41:39.113Z,36.27
2019-04-13T13:46:58.238Z,38.40
2019-04-13T13:49:30.212Z,37.33
2019-04-13T13:52:05.686Z,38.30
2019-04-13T13:54:36.142Z,37.23
2019-04-13T13:57:08.185Z,39.87
2019-04-13T13:59:40.204Z,40.17
2019-04-13T14:02:21.463Z,39.00
2019-04-13T14:04:53.524Z,38.20
2019-04-13T14:07:25.525Z,37.90
2019-04-13T14:10:15.852Z,37.63
2019-04-13T14:12:47.909Z,36.63
2019-04-13T14:15:19.933Z,38.43
2019-04-13T14:17:55.212Z,39.03
2019-04-13T14:20:27.476Z,37.63
2019-04-13T14:22:59.709Z,37.80
2019-04-13T14:25:31.740Z,37.17
2019-04-13T14:28:03.738Z,38.80
2019-04-13T14:30:35.782Z,40.40
2019-04-13T14:33:07.797Z,41.37
2019-04-13T14:35:39.919Z,40.40
2019-04-13T14:38:13.982Z,38.97
2019-04-13T14:40:55.335Z,41.93
2019-04-13T14:43:36.161Z,42.17
2019-04-13T14:46:09.298Z,43.63
2019-04-13T14:48:41.370Z,43.03
2019-04-13T14:51:13.578Z,41.40
2019-04-13T14:53:46.394Z,42.07
2019-04-13T14:56:19.160Z,43.50
2019-04-13T14:58:51.216Z,41.60
2019-04-13T15:01:23.271Z,45.30
2019-04-13T15:03:55.261Z,43.90
2019-04-13T15:06:27.288Z,46.00
2019-04-13T15:08:59.309Z,46.07
2019-04-13T15:11:31.317Z,46.83
2019-04-13T15:14:04.257Z,44.70
2019-04-13T15:16:36.319Z,45.33
2019-04-13T15:19:26.301Z,47.10
2019-04-13T15:21:50.183Z,45.07
2019-04-13T15:24:23.248Z,44.57
2019-04-13T15:26:56.305Z,44.60
2019-04-13T15:29:31.508Z,43.70
2019-04-13T15:32:02.334Z,43.60
2019-04-13T15:34:36.429Z,47.10
2019-04-13T15:37:09.857Z,46.23
2019-04-13T15:39:45.559Z,46.23
2019-04-13T15:42:21.911Z,44.30
2019-04-13T15:44:52.795Z,45.17
2019-04-13T15:47:27.145Z,50.10
2019-04-13T15:49:58.899Z,46.57
2019-04-13T15:52:31.159Z,49.90
2019-04-13T15:55:04.384Z,47.67
2019-04-13T15:57:37.260Z,45.53
2019-04-13T16:00:09.404Z,49.53
2019-04-13T16:02:42.715Z,47.13
2019-04-13T16:05:14.888Z,48.73
2019-04-13T16:07:46.899Z,49.40
2019-04-13T16:10:44.358Z,44.87
2019-04-13T16:13:21.544Z,48.50
2019-04-13T16:16:01.095Z,47.83
2019-04-13T16:18:33.174Z,43.87
2019-04-13T16:21:06.347Z,43.37
2019-04-13T16:23:39.015Z,50.37
2019-04-13T16:26:11.037Z,47.57
2019-04-13T16:29:10.056Z,47.03
2019-04-13T16:31:55.530Z,50.50
2019-04-13T16:34:46.640Z,50.07
2019-04-13T16:37:23.370Z,51.30
2019-04-13T16:39:55.860Z,50.47
2019-04-13T16:42:31.227Z,49.23
2019-04-13T16:45:34.123Z,50.50
2019-04-13T16:48:25.309Z,52.17
2019-04-13T16:51:16.209Z,52.83
2019-04-13T16:54:06.198Z,51.97
2019-04-13T16:56:45.856Z,48.57
2019-04-13T16:59:40.709Z,49.53
2019-04-13T17:02:35.971Z,52.00
2019-04-13T17:05:11.397Z,51.50
2019-04-13T17:07:44.715Z,50.20
2019-04-13T17:10:17.136Z,50.00
2019-04-13T17:12:49.394Z,50.30
2019-04-13T17:15:21.496Z,50.40
2019-04-13T17:17:53.699Z,50.40
2019-04-13T17:20:45.603Z,50.77
2019-04-13T17:23:46.342Z,51.57
2019-04-13T17:26:33.538Z,49.93
2019-04-13T17:29:18.734Z,52.03
2019-04-13T17:31:59.919Z,56.83
2019-04-13T17:34:36.302Z,50.57
2019-04-13T17:37:09.338Z,55.53
2019-04-13T17:39:41.419Z,54.83
2019-04-13T17:42:40.675Z,52.57
2019-04-13T17:45:28.208Z,52.03
2019-04-13T17:48:13.140Z,52.23
2019-04-13T17:51:03.907Z,54.73
2019-04-13T17:53:45.227Z,53.97
2019-04-13T17:56:19.818Z,53.13
2019-04-13T17:59:03.267Z,53.77
2019-04-13T18:01:53.809Z,51.33
2019-04-13T18:04:45.746Z,52.53
2019-04-13T18:07:37.420Z,47.63
2019-04-13T18:10:21.001Z,51.77
2019-04-13T18:13:11.986Z,54.43
2019-04-13T18:16:04.291Z,54.03
2019-04-13T18:18:39.668Z,49.80
2019-04-13T18:21:11.624Z,54.30
2019-04-13T18:23:44.026Z,82.27
2019-04-13T18:26:16.356Z,70.03
2019-04-13T18:28:48.432Z,62.07
2019-04-13T18:31:20.638Z,57.77
2019-04-13T18:33:53.398Z,61.53
2019-04-13T18:36:25.725Z,52.00
2019-04-13T18:38:58.323Z,48.67
2019-04-13T18:41:30.916Z,49.97
2019-04-13T18:44:03.382Z,53.43
2019-04-13T18:46:36.269Z,54.13
2019-04-13T18:49:09.525Z,54.97
2019-04-13T18:51:42.050Z,53.70
2019-04-13T18:54:14.145Z,51.17
2019-04-13T18:56:46.180Z,50.53
2019-04-13T18:59:19.370Z,51.97
2019-04-13T19:01:51.671Z,53.07
2019-04-13T19:04:23.704Z,51.83
2019-04-13T19:06:55.711Z,48.53
2019-04-13T19:09:27.782Z,47.00
2019-04-13T19:11:59.814Z,46.33
2019-04-13T19:14:31.860Z,54.00
2019-04-13T19:17:03.980Z,62.43
2019-04-13T19:19:36.020Z,79.83
2019-04-13T19:22:08.089Z,79.27
2019-04-13T19:24:40.172Z,64.87
2019-04-13T19:27:12.215Z,54.43
2019-04-13T19:29:44.306Z,52.90
2019-04-13T19:32:16.384Z,51.63
2019-04-13T19:34:48.484Z,52.80
2019-04-13T19:37:20.498Z,54.60
2019-04-13T19:39:52.574Z,51.07
2019-04-13T19:42:24.608Z,52.07
2019-04-13T19:44:56.696Z,50.17
2019-04-13T19:47:28.693Z,54.20
2019-04-13T19:50:00.853Z,53.07
2019-04-13T19:52:58.635Z,48.30
2019-04-13T19:55:30.697Z,49.47
2019-04-13T19:58:02.680Z,48.47
2019-04-13T20:00:38.805Z,52.47
2019-04-13T20:03:10.784Z,46.93
2019-04-13T20:05:42.823Z,46.60
2019-04-13T20:08:14.865Z,49.53
2019-04-13T20:10:46.996Z,43.77
2019-04-13T20:13:30.763Z,48.70
2019-04-13T20:15:53.136Z,43.70
2019-04-13T20:18:26.204Z,44.13
2019-04-13T20:20:58.303Z,45.00
2019-04-13T20:23:30.277Z,45.40
2019-04-13T20:26:03.342Z,43.83
2019-04-13T20:28:35.470Z,46.03
2019-04-13T20:31:07.485Z,45.30
2019-04-13T20:33:39.503Z,46.40
2019-04-13T20:36:16.396Z,47.70
2019-04-13T20:38:45.578Z,48.00
2019-04-13T20:41:21.537Z,43.77
2019-04-13T20:44:02.299Z,49.33
2019-04-13T20:46:27.815Z,47.73
2019-04-13T20:48:59.910Z,44.23
2019-04-13T20:51:32.169Z,43.00
2019-04-13T20:54:04.216Z,49.63
2019-04-13T20:56:36.258Z,50.80
2019-04-13T20:59:08.563Z,59.63
2019-04-13T21:01:40.907Z,59.20
2019-04-13T21:04:13.024Z,46.73
2019-04-13T21:06:45.724Z,51.90
2019-04-13T21:09:18.354Z,44.73
2019-04-13T21:11:50.556Z,42.87
2019-04-13T21:14:29.080Z,45.17
2019-04-13T21:16:56.463Z,45.77
2019-04-13T21:19:28.663Z,48.43
2019-04-13T21:22:00.797Z,47.87
2019-04-13T21:24:33.082Z,47.10
2019-04-13T21:27:05.326Z,50.33
2019-04-13T21:29:37.426Z,47.40
2019-04-13T21:32:09.558Z,49.30
2019-04-13T21:34:42.942Z,45.37
2019-04-13T21:37:15.979Z,49.23
2019-04-13T21:39:48.382Z,46.80
2019-04-13T21:42:20.412Z,48.00
2019-04-13T21:44:53.040Z,47.83
2019-04-13T21:47:25.173Z,52.47
2019-04-13T21:50:04.354Z,52.93
2019-04-13T21:52:50.080Z,47.87
2019-04-13T21:55:36.048Z,45.23
2019-04-13T21:58:08.045Z,49.00
2019-04-13T22:01:08.601Z,44.57
2019-04-13T22:03:40.713Z,46.00
2019-04-13T22:06:12.710Z,45.73
2019-04-13T22:08:44.944Z,49.20
2019-04-13T22:11:17.062Z,46.10
2019-04-13T22:13:49.086Z,46.47
2019-04-13T22:16:21.236Z,44.60
2019-04-13T22:18:53.909Z,49.97
2019-04-13T22:21:26.247Z,45.83
2019-04-13T22:23:58.594Z,47.13
2019-04-13T22:26:30.680Z,46.27
2019-04-13T22:29:07.558Z,45.83
2019-04-13T22:32:14.547Z,43.10
2019-04-13T22:35:06.555Z,43.90
2019-04-13T22:37:38.625Z,37.83
2019-04-13T22:40:10.847Z,48.27
2019-04-13T22:42:42.914Z,47.90
2019-04-13T22:45:16.482Z,50.00
2019-04-13T22:47:54.144Z,48.30
2019-04-13T22:50:55.074Z,50.60
2019-04-13T22:53:44.017Z,51.53
2019-04-13T22:56:22.903Z,47.43
2019-04-13T22:58:55.786Z,51.67
2019-04-13T23:01:29.736Z,50.60
2019-04-13T23:04:01.743Z,47.57
2019-04-13T23:06:33.730Z,45.50
2019-04-13T23:09:06.477Z,48.93
2019-04-13T23:11:38.935Z,47.17
2019-04-13T23:14:11.179Z,64.30
2019-04-13T23:16:43.426Z,61.63
2019-04-13T23:19:15.504Z,51.83
2019-04-13T23:21:48.416Z,53.03
2019-04-13T23:24:21.314Z,49.43
2019-04-13T23:26:53.744Z,50.43
2019-04-13T23:29:25.883Z,46.40
2019-04-13T23:31:58.695Z,51.93
2019-04-13T23:34:31.156Z,48.73
2019-04-13T23:37:04.039Z,49.23
2019-04-13T23:39:36.664Z,49.07
2019-04-13T23:42:09.153Z,48.23
2019-04-13T23:44:42.057Z,50.60
2019-04-13T23:47:14.399Z,53.50
2019-04-13T23:49:47.142Z,48.97
2019-04-13T23:52:19.668Z,55.30
2019-04-13T23:54:52.352Z,49.53
2019-04-13T23:57:31.453Z,52.07
